sensor_id;sensor_type;location;lat;lon;timestamp;P1;durP1;ratioP1;P2;durP2;ratioP2
63975;SDS011;50167;47.958;21.780;2022-09-28T00:01:29;12.37;;;10.20;;
63975;SDS011;50167;47.958;21.780;2022-09-28T00:03:55;15.60;;;11.43;;
63975;SDS011;50167;47.958;21.780;2022-09-28T00:06:22;16.43;;;13.37;;
63975;SDS011;50167;47.958;21.780;2022-09-28T00:08:50;19.87;;;16.07;;
63975;SDS011;50167;47.958;21.780;2022-09-28T00:11:18;18.03;;;14.27;;
63975;SDS011;50167;47.958;21.780;2022-09-28T00:13:49;19.37;;;14.63;;
63975;SDS011;50167;47.958;21.780;2022-09-28T00:16:19;20.77;;;16.13;;
63975;SDS011;50167;47.958;21.780;2022-09-28T00:18:48;22.70;;;16.77;;
63975;SDS011;50167;47.958;21.780;2022-09-28T00:21:18;23.00;;;16.50;;
63975;SDS011;50167;47.958;21.780;2022-09-28T00:23:47;21.70;;;17.48;;
63975;SDS011;50167;47.958;21.780;2022-09-28T00:26:50;20.00;;;15.97;;
63975;SDS011;50167;47.958;21.780;2022-09-28T00:31:52;36.57;;;17.47;;
63975;SDS011;50167;47.958;21.780;2022-09-28T00:34:23;19.70;;;16.53;;
63975;SDS011;50167;47.958;21.780;2022-09-28T00:36:51;24.07;;;17.87;;
63975;SDS011;50167;47.958;21.780;2022-09-28T00:39:17;26.07;;;19.47;;
63975;SDS011;50167;47.958;21.780;2022-09-28T00:41:44;24.37;;;19.60;;
63975;SDS011;50167;47.958;21.780;2022-09-28T00:44:30;26.40;;;20.10;;
63975;SDS011;50167;47.958;21.780;2022-09-28T00:50:17;23.60;;;19.13;;
63975;SDS011;50167;47.958;21.780;2022-09-28T00:58:19;30.17;;;22.80;;
63975;SDS011;50167;47.958;21.780;2022-09-28T01:00:57;29.10;;;21.97;;
63975;SDS011;50167;47.958;21.780;2022-09-28T01:03:22;26.67;;;19.87;;
63975;SDS011;50167;47.958;21.780;2022-09-28T01:05:54;29.33;;;22.20;;
63975;SDS011;50167;47.958;21.780;2022-09-28T01:10:54;29.48;;;21.42;;
63975;SDS011;50167;47.958;21.780;2022-09-28T01:13:23;31.30;;;23.63;;
63975;SDS011;50167;47.958;21.780;2022-09-28T01:21:58;28.93;;;20.17;;
63975;SDS011;50167;47.958;21.780;2022-09-28T01:24:42;27.57;;;20.77;;
63975;SDS011;50167;47.958;21.780;2022-09-28T01:27:31;28.10;;;22.23;;
63975;SDS011;50167;47.958;21.780;2022-09-28T01:30:15;31.20;;;22.10;;
63975;SDS011;50167;47.958;21.780;2022-09-28T01:35:31;25.73;;;19.97;;
63975;SDS011;50167;47.958;21.780;2022-09-28T01:38:16;28.70;;;19.30;;
63975;SDS011;50167;47.958;21.780;2022-09-28T01:40:52;24.90;;;19.57;;
63975;SDS011;50167;47.958;21.780;2022-09-28T01:43:24;23.37;;;17.63;;
63975;SDS011;50167;47.958;21.780;2022-09-28T01:46:03;24.27;;;17.00;;
63975;SDS011;50167;47.958;21.780;2022-09-28T01:48:39;20.03;;;15.27;;
63975;SDS011;50167;47.958;21.780;2022-09-28T01:51:25;17.13;;;14.13;;
63975;SDS011;50167;47.958;21.780;2022-09-28T01:56:36;20.40;;;13.80;;
63975;SDS011;50167;47.958;21.780;2022-09-28T01:59:20;17.20;;;12.20;;
63975;SDS011;50167;47.958;21.780;2022-09-28T02:01:51;27.30;;;13.80;;
63975;SDS011;50167;47.958;21.780;2022-09-28T02:04:25;15.07;;;11.00;;
63975;SDS011;50167;47.958;21.780;2022-09-28T02:06:56;14.47;;;11.30;;
63975;SDS011;50167;47.958;21.780;2022-09-28T02:09:34;11.87;;;9.03;;
63975;SDS011;50167;47.958;21.780;2022-09-28T02:12:08;14.97;;;7.93;;
63975;SDS011;50167;47.958;21.780;2022-09-28T02:14:36;11.40;;;8.70;;
63975;SDS011;50167;47.958;21.780;2022-09-28T02:17:05;13.67;;;7.30;;
63975;SDS011;50167;47.958;21.780;2022-09-28T02:19:32;7.87;;;5.97;;
63975;SDS011;50167;47.958;21.780;2022-09-28T02:24:45;9.90;;;5.47;;
63975;SDS011;50167;47.958;21.780;2022-09-28T02:27:16;6.10;;;4.60;;
63975;SDS011;50167;47.958;21.780;2022-09-28T02:30:04;6.30;;;3.77;;
63975;SDS011;50167;47.958;21.780;2022-09-28T02:32:33;8.70;;;4.47;;
63975;SDS011;50167;47.958;21.780;2022-09-28T02:35:11;6.87;;;3.33;;
63975;SDS011;50167;47.958;21.780;2022-09-28T02:37:41;4.03;;;3.10;;
63975;SDS011;50167;47.958;21.780;2022-09-28T02:40:24;5.73;;;3.23;;
63975;SDS011;50167;47.958;21.780;2022-09-28T02:43:01;3.97;;;3.00;;
63975;SDS011;50167;47.958;21.780;2022-09-28T03:00:41;6.77;;;3.33;;
63975;SDS011;50167;47.958;21.780;2022-09-28T03:06:26;10.67;;;4.90;;
63975;SDS011;50167;47.958;21.780;2022-09-28T03:09:06;7.00;;;4.67;;
63975;SDS011;50167;47.958;21.780;2022-09-28T03:11:36;7.60;;;3.67;;
63975;SDS011;50167;47.958;21.780;2022-09-28T03:14:09;5.37;;;3.03;;
63975;SDS011;50167;47.958;21.780;2022-09-28T03:16:36;4.90;;;3.40;;
63975;SDS011;50167;47.958;21.780;2022-09-28T03:19:02;4.47;;;3.00;;
63975;SDS011;50167;47.958;21.780;2022-09-28T03:21:29;7.03;;;3.50;;
63975;SDS011;50167;47.958;21.780;2022-09-28T03:23:55;6.97;;;3.10;;
63975;SDS011;50167;47.958;21.780;2022-09-28T03:26:21;3.43;;;2.90;;
63975;SDS011;50167;47.958;21.780;2022-09-28T03:28:47;13.67;;;2.60;;
63975;SDS011;50167;47.958;21.780;2022-09-28T03:31:13;6.30;;;2.27;;
63975;SDS011;50167;47.958;21.780;2022-09-28T03:33:39;2.80;;;2.27;;
63975;SDS011;50167;47.958;21.780;2022-09-28T03:36:05;4.53;;;3.00;;
63975;SDS011;50167;47.958;21.780;2022-09-28T03:38:33;6.67;;;3.77;;
63975;SDS011;50167;47.958;21.780;2022-09-28T03:40:59;3.60;;;3.00;;
63975;SDS011;50167;47.958;21.780;2022-09-28T03:43:26;7.70;;;3.93;;
63975;SDS011;50167;47.958;21.780;2022-09-28T03:45:58;6.90;;;3.40;;
63975;SDS011;50167;47.958;21.780;2022-09-28T03:48:25;7.97;;;3.15;;
63975;SDS011;50167;47.958;21.780;2022-09-28T03:50:54;4.70;;;2.90;;
63975;SDS011;50167;47.958;21.780;2022-09-28T03:53:22;3.13;;;2.33;;
63975;SDS011;50167;47.958;21.780;2022-09-28T03:55:49;8.23;;;3.50;;
63975;SDS011;50167;47.958;21.780;2022-09-28T03:58:20;6.87;;;2.90;;
63975;SDS011;50167;47.958;21.780;2022-09-28T04:00:47;4.95;;;2.33;;
63975;SDS011;50167;47.958;21.780;2022-09-28T04:03:14;10.30;;;3.27;;
63975;SDS011;50167;47.958;21.780;2022-09-28T04:05:47;4.57;;;3.03;;
63975;SDS011;50167;47.958;21.780;2022-09-28T04:08:14;3.60;;;2.67;;
63975;SDS011;50167;47.958;21.780;2022-09-28T04:10:41;4.63;;;2.83;;
63975;SDS011;50167;47.958;21.780;2022-09-28T04:13:07;2.97;;;2.60;;
63975;SDS011;50167;47.958;21.780;2022-09-28T04:15:33;5.30;;;2.40;;
63975;SDS011;50167;47.958;21.780;2022-09-28T04:17:59;5.17;;;3.00;;
63975;SDS011;50167;47.958;21.780;2022-09-28T04:20:25;4.10;;;2.67;;
63975;SDS011;50167;47.958;21.780;2022-09-28T04:22:51;7.13;;;2.67;;
63975;SDS011;50167;47.958;21.780;2022-09-28T04:25:17;5.53;;;2.97;;
63975;SDS011;50167;47.958;21.780;2022-09-28T04:27:43;6.60;;;3.37;;
63975;SDS011;50167;47.958;21.780;2022-09-28T04:30:28;8.60;;;4.60;;
63975;SDS011;50167;47.958;21.780;2022-09-28T04:32:54;5.93;;;2.50;;
63975;SDS011;50167;47.958;21.780;2022-09-28T04:35:20;3.60;;;2.73;;
63975;SDS011;50167;47.958;21.780;2022-09-28T04:37:46;3.23;;;2.70;;
63975;SDS011;50167;47.958;21.780;2022-09-28T04:40:12;5.03;;;3.30;;
63975;SDS011;50167;47.958;21.780;2022-09-28T04:42:38;4.10;;;3.03;;
63975;SDS011;50167;47.958;21.780;2022-09-28T04:45:04;5.27;;;3.83;;
63975;SDS011;50167;47.958;21.780;2022-09-28T04:47:32;7.03;;;4.33;;
63975;SDS011;50167;47.958;21.780;2022-09-28T04:49:58;6.50;;;4.73;;
63975;SDS011;50167;47.958;21.780;2022-09-28T04:52:24;7.33;;;5.00;;
63975;SDS011;50167;47.958;21.780;2022-09-28T04:54:51;9.70;;;4.50;;
63975;SDS011;50167;47.958;21.780;2022-09-28T04:57:17;6.03;;;4.07;;
63975;SDS011;50167;47.958;21.780;2022-09-28T04:59:43;3.80;;;3.10;;
63975;SDS011;50167;47.958;21.780;2022-09-28T05:02:10;8.07;;;3.40;;
63975;SDS011;50167;47.958;21.780;2022-09-28T05:04:37;6.20;;;3.77;;
63975;SDS011;50167;47.958;21.780;2022-09-28T05:07:04;9.50;;;5.13;;
63975;SDS011;50167;47.958;21.780;2022-09-28T05:09:30;9.00;;;5.17;;
63975;SDS011;50167;47.958;21.780;2022-09-28T05:11:56;10.43;;;6.13;;
63975;SDS011;50167;47.958;21.780;2022-09-28T05:14:22;6.53;;;4.03;;
63975;SDS011;50167;47.958;21.780;2022-09-28T05:16:48;11.33;;;3.93;;
63975;SDS011;50167;47.958;21.780;2022-09-28T05:19:15;9.13;;;3.73;;
63975;SDS011;50167;47.958;21.780;2022-09-28T05:21:44;9.70;;;5.03;;
63975;SDS011;50167;47.958;21.780;2022-09-28T05:24:11;12.60;;;5.20;;
63975;SDS011;50167;47.958;21.780;2022-09-28T05:26:37;10.80;;;3.80;;
63975;SDS011;50167;47.958;21.780;2022-09-28T05:29:04;14.53;;;6.53;;
63975;SDS011;50167;47.958;21.780;2022-09-28T05:31:30;7.10;;;4.90;;
63975;SDS011;50167;47.958;21.780;2022-09-28T05:33:56;11.23;;;5.60;;
63975;SDS011;50167;47.958;21.780;2022-09-28T05:36:22;7.33;;;5.37;;
63975;SDS011;50167;47.958;21.780;2022-09-28T05:38:50;8.93;;;4.87;;
63975;SDS011;50167;47.958;21.780;2022-09-28T05:41:16;5.57;;;4.50;;
63975;SDS011;50167;47.958;21.780;2022-09-28T05:43:42;6.83;;;4.83;;
63975;SDS011;50167;47.958;21.780;2022-09-28T05:46:10;8.50;;;4.50;;
63975;SDS011;50167;47.958;21.780;2022-09-28T05:48:36;8.67;;;5.10;;
63975;SDS011;50167;47.958;21.780;2022-09-28T05:51:02;6.70;;;4.27;;
63975;SDS011;50167;47.958;21.780;2022-09-28T05:53:28;14.07;;;4.73;;
63975;SDS011;50167;47.958;21.780;2022-09-28T05:55:57;5.60;;;5.00;;
63975;SDS011;50167;47.958;21.780;2022-09-28T05:58:24;12.30;;;5.47;;
63975;SDS011;50167;47.958;21.780;2022-09-28T06:00:54;5.10;;;4.00;;
63975;SDS011;50167;47.958;21.780;2022-09-28T06:03:20;5.83;;;4.45;;
63975;SDS011;50167;47.958;21.780;2022-09-28T06:05:47;5.93;;;4.23;;
63975;SDS011;50167;47.958;21.780;2022-09-28T06:08:13;7.77;;;4.23;;
63975;SDS011;50167;47.958;21.780;2022-09-28T06:10:39;7.70;;;4.37;;
63975;SDS011;50167;47.958;21.780;2022-09-28T06:13:05;5.53;;;4.40;;
63975;SDS011;50167;47.958;21.780;2022-09-28T06:15:34;4.70;;;4.20;;
63975;SDS011;50167;47.958;21.780;2022-09-28T06:23:01;5.90;;;4.30;;
63975;SDS011;50167;47.958;21.780;2022-09-28T06:25:27;6.80;;;4.43;;
63975;SDS011;50167;47.958;21.780;2022-09-28T06:28:00;8.70;;;4.67;;
63975;SDS011;50167;47.958;21.780;2022-09-28T06:30:30;4.70;;;4.20;;
63975;SDS011;50167;47.958;21.780;2022-09-28T06:32:59;5.80;;;4.70;;
63975;SDS011;50167;47.958;21.780;2022-09-28T06:35:27;5.60;;;4.27;;
63975;SDS011;50167;47.958;21.780;2022-09-28T06:37:55;5.27;;;4.00;;
63975;SDS011;50167;47.958;21.780;2022-09-28T06:40:23;6.90;;;4.97;;
63975;SDS011;50167;47.958;21.780;2022-09-28T06:42:59;5.07;;;3.33;;
63975;SDS011;50167;47.958;21.780;2022-09-28T06:45:33;23.60;;;13.00;;
63975;SDS011;50167;47.958;21.780;2022-09-28T06:47:59;11.80;;;5.40;;
63975;SDS011;50167;47.958;21.780;2022-09-28T06:50:31;6.67;;;5.00;;
63975;SDS011;50167;47.958;21.780;2022-09-28T06:53:01;12.80;;;4.77;;
63975;SDS011;50167;47.958;21.780;2022-09-28T06:55:31;9.97;;;3.63;;
63975;SDS011;50167;47.958;21.780;2022-09-28T06:58:01;8.63;;;4.47;;
63975;SDS011;50167;47.958;21.780;2022-09-28T07:00:30;6.47;;;4.10;;
63975;SDS011;50167;47.958;21.780;2022-09-28T07:03:03;5.47;;;4.50;;
63975;SDS011;50167;47.958;21.780;2022-09-28T07:05:34;6.60;;;3.90;;
63975;SDS011;50167;47.958;21.780;2022-09-28T07:08:03;5.73;;;3.63;;
63975;SDS011;50167;47.958;21.780;2022-09-28T07:10:29;8.73;;;4.23;;
63975;SDS011;50167;47.958;21.780;2022-09-28T07:12:57;8.53;;;3.67;;
63975;SDS011;50167;47.958;21.780;2022-09-28T07:15:29;6.17;;;3.27;;
63975;SDS011;50167;47.958;21.780;2022-09-28T07:17:57;5.50;;;3.13;;
63975;SDS011;50167;47.958;21.780;2022-09-28T07:20:24;3.83;;;2.80;;
63975;SDS011;50167;47.958;21.780;2022-09-28T07:22:51;5.80;;;2.70;;
63975;SDS011;50167;47.958;21.780;2022-09-28T07:25:21;5.70;;;3.60;;
63975;SDS011;50167;47.958;21.780;2022-09-28T07:27:48;4.87;;;2.80;;
63975;SDS011;50167;47.958;21.780;2022-09-28T07:30:15;13.07;;;3.10;;
63975;SDS011;50167;47.958;21.780;2022-09-28T07:32:44;5.53;;;2.60;;
63975;SDS011;50167;47.958;21.780;2022-09-28T07:35:09;3.33;;;2.53;;
63975;SDS011;50167;47.958;21.780;2022-09-28T07:37:35;7.43;;;3.00;;
63975;SDS011;50167;47.958;21.780;2022-09-28T07:40:03;4.50;;;3.00;;
63975;SDS011;50167;47.958;21.780;2022-09-28T07:42:50;6.73;;;3.03;;
63975;SDS011;50167;47.958;21.780;2022-09-28T07:45:16;6.33;;;3.40;;
63975;SDS011;50167;47.958;21.780;2022-09-28T07:47:45;3.10;;;2.70;;
63975;SDS011;50167;47.958;21.780;2022-09-28T07:50:12;5.67;;;3.20;;
63975;SDS011;50167;47.958;21.780;2022-09-28T07:52:38;8.03;;;2.80;;
63975;SDS011;50167;47.958;21.780;2022-09-28T07:55:04;6.10;;;3.00;;
63975;SDS011;50167;47.958;21.780;2022-09-28T07:57:32;5.17;;;2.70;;
63975;SDS011;50167;47.958;21.780;2022-09-28T07:59:58;8.10;;;2.37;;
63975;SDS011;50167;47.958;21.780;2022-09-28T08:02:25;13.43;;;4.23;;
63975;SDS011;50167;47.958;21.780;2022-09-28T08:04:51;9.97;;;3.27;;
63975;SDS011;50167;47.958;21.780;2022-09-28T08:07:17;4.37;;;2.70;;
63975;SDS011;50167;47.958;21.780;2022-09-28T08:09:44;4.23;;;3.17;;
63975;SDS011;50167;47.958;21.780;2022-09-28T08:12:11;4.00;;;3.13;;
63975;SDS011;50167;47.958;21.780;2022-09-28T08:14:38;5.70;;;3.57;;
63975;SDS011;50167;47.958;21.780;2022-09-28T08:17:05;3.53;;;3.00;;
63975;SDS011;50167;47.958;21.780;2022-09-28T08:19:32;5.43;;;3.33;;
63975;SDS011;50167;47.958;21.780;2022-09-28T08:22:17;6.83;;;2.83;;
63975;SDS011;50167;47.958;21.780;2022-09-28T08:24:45;6.87;;;4.60;;
63975;SDS011;50167;47.958;21.780;2022-09-28T08:27:12;10.43;;;2.90;;
63975;SDS011;50167;47.958;21.780;2022-09-28T08:29:41;6.60;;;2.70;;
63975;SDS011;50167;47.958;21.780;2022-09-28T08:32:08;3.43;;;2.63;;
63975;SDS011;50167;47.958;21.780;2022-09-28T08:34:35;3.43;;;2.63;;
63975;SDS011;50167;47.958;21.780;2022-09-28T08:37:02;3.53;;;1.97;;
63975;SDS011;50167;47.958;21.780;2022-09-28T08:39:30;2.13;;;1.70;;
63975;SDS011;50167;47.958;21.780;2022-09-28T08:44:42;4.00;;;1.80;;
63975;SDS011;50167;47.958;21.780;2022-09-28T08:50:27;4.80;;;1.50;;
63975;SDS011;50167;47.958;21.780;2022-09-28T08:52:58;2.33;;;1.75;;
63975;SDS011;50167;47.958;21.780;2022-09-28T08:55:35;1.30;;;1.20;;
63975;SDS011;50167;47.958;21.780;2022-09-28T08:58:08;3.97;;;2.03;;
63975;SDS011;50167;47.958;21.780;2022-09-28T09:00:44;2.53;;;1.30;;
63975;SDS011;50167;47.958;21.780;2022-09-28T09:03:19;4.67;;;1.40;;
63975;SDS011;50167;47.958;21.780;2022-09-28T09:20:55;1.37;;;0.97;;
63975;SDS011;50167;47.958;21.780;2022-09-28T09:26:09;2.10;;;1.17;;
63975;SDS011;50167;47.958;21.780;2022-09-28T09:31:51;0.97;;;0.80;;
63975;SDS011;50167;47.958;21.780;2022-09-28T09:37:32;1.50;;;1.05;;
63975;SDS011;50167;47.958;21.780;2022-09-28T09:40:05;0.75;;;0.70;;
63975;SDS011;50167;47.958;21.780;2022-09-28T09:46:09;0.87;;;0.80;;
63975;SDS011;50167;47.958;21.780;2022-09-28T09:48:55;4.10;;;0.75;;
63975;SDS011;50167;47.958;21.780;2022-09-28T09:51:55;1.10;;;0.70;;
63975;SDS011;50167;47.958;21.780;2022-09-28T10:00:04;1.77;;;1.12;;
63975;SDS011;50167;47.958;21.780;2022-09-28T10:02:40;2.00;;;0.90;;
63975;SDS011;50167;47.958;21.780;2022-09-28T10:10:35;1.40;;;0.50;;
63975;SDS011;50167;47.958;21.780;2022-09-28T10:13:13;1.62;;;1.05;;
63975;SDS011;50167;47.958;21.780;2022-09-28T10:15:40;2.42;;;0.70;;
63975;SDS011;50167;47.958;21.780;2022-09-28T10:18:11;0.93;;;0.68;;
63975;SDS011;50167;47.958;21.780;2022-09-28T10:20:42;1.40;;;0.82;;
63975;SDS011;50167;47.958;21.780;2022-09-28T10:23:16;2.83;;;0.72;;
63975;SDS011;50167;47.958;21.780;2022-09-28T10:25:48;1.65;;;0.78;;
63975;SDS011;50167;47.958;21.780;2022-09-28T10:28:20;2.50;;;1.20;;
63975;SDS011;50167;47.958;21.780;2022-09-28T10:30:48;6.00;;;1.70;;
63975;SDS011;50167;47.958;21.780;2022-09-28T10:33:28;1.92;;;0.93;;
63975;SDS011;50167;47.958;21.780;2022-09-28T10:36:03;2.33;;;1.30;;
63975;SDS011;50167;47.958;21.780;2022-09-28T10:38:26;3.22;;;0.70;;
63975;SDS011;50167;47.958;21.780;2022-09-28T10:40:57;5.33;;;1.40;;
63975;SDS011;50167;47.958;21.780;2022-09-28T10:43:33;1.65;;;0.80;;
63975;SDS011;50167;47.958;21.780;2022-09-28T10:46:13;2.05;;;0.82;;
63975;SDS011;50167;47.958;21.780;2022-09-28T10:51:50;1.22;;;0.62;;
63975;SDS011;50167;47.958;21.780;2022-09-28T10:54:20;3.52;;;0.80;;
63975;SDS011;50167;47.958;21.780;2022-09-28T10:56:50;1.82;;;1.05;;
63975;SDS011;50167;47.958;21.780;2022-09-28T10:59:38;3.95;;;0.90;;
63975;SDS011;50167;47.958;21.780;2022-09-28T11:02:12;3.87;;;0.80;;
63975;SDS011;50167;47.958;21.780;2022-09-28T11:04:50;0.70;;;0.70;;
63975;SDS011;50167;47.958;21.780;2022-09-28T11:07:25;0.70;;;0.70;;
63975;SDS011;50167;47.958;21.780;2022-09-28T11:09:58;0.88;;;0.60;;
63975;SDS011;50167;47.958;21.780;2022-09-28T11:12:26;1.37;;;0.68;;
63975;SDS011;50167;47.958;21.780;2022-09-28T11:15:04;3.22;;;0.50;;
63975;SDS011;50167;47.958;21.780;2022-09-28T11:17:33;0.85;;;0.42;;
63975;SDS011;50167;47.958;21.780;2022-09-28T11:20:24;3.80;;;0.50;;
63975;SDS011;50167;47.958;21.780;2022-09-28T11:23:00;0.60;;;0.60;;
63975;SDS011;50167;47.958;21.780;2022-09-28T11:25:58;2.12;;;0.50;;
63975;SDS011;50167;47.958;21.780;2022-09-28T11:28:27;2.22;;;0.80;;
63975;SDS011;50167;47.958;21.780;2022-09-28T11:30:57;3.05;;;1.27;;
63975;SDS011;50167;47.958;21.780;2022-09-28T11:33:32;0.90;;;0.60;;
63975;SDS011;50167;47.958;21.780;2022-09-28T11:49:51;1.35;;;0.35;;
63975;SDS011;50167;47.958;21.780;2022-09-28T11:55:11;3.12;;;0.30;;
63975;SDS011;50167;47.958;21.780;2022-09-28T11:57:47;0.60;;;0.60;;
63975;SDS011;50167;47.958;21.780;2022-09-28T12:00:21;1.37;;;0.60;;
63975;SDS011;50167;47.958;21.780;2022-09-28T12:05:22;2.35;;;0.53;;
63975;SDS011;50167;47.958;21.780;2022-09-28T12:08:07;1.20;;;0.60;;
63975;SDS011;50167;47.958;21.780;2022-09-28T12:10:46;3.00;;;0.70;;
63975;SDS011;50167;47.958;21.780;2022-09-28T12:13:32;3.42;;;0.60;;
63975;SDS011;50167;47.958;21.780;2022-09-28T12:16:02;2.90;;;1.30;;
63975;SDS011;50167;47.958;21.780;2022-09-28T12:21:27;10.18;;;0.82;;
63975;SDS011;50167;47.958;21.780;2022-09-28T12:24:16;2.22;;;0.75;;
63975;SDS011;50167;47.958;21.780;2022-09-28T12:27:03;5.45;;;3.30;;
63975;SDS011;50167;47.958;21.780;2022-09-28T12:30:02;1.40;;;1.05;;
63975;SDS011;50167;47.958;21.780;2022-09-28T12:41:40;1.20;;;0.70;;
63975;SDS011;50167;47.958;21.780;2022-09-28T12:56:10;1.55;;;0.75;;
63975;SDS011;50167;47.958;21.780;2022-09-28T12:59:03;1.98;;;0.70;;
63975;SDS011;50167;47.958;21.780;2022-09-28T13:01:44;1.25;;;0.70;;
63975;SDS011;50167;47.958;21.780;2022-09-28T13:04:54;0.70;;;0.70;;
63975;SDS011;50167;47.958;21.780;2022-09-28T13:10:35;0.70;;;0.60;;
63975;SDS011;50167;47.958;21.780;2022-09-28T13:21:54;1.40;;;0.82;;
63975;SDS011;50167;47.958;21.780;2022-09-28T13:24:25;0.82;;;0.78;;
63975;SDS011;50167;47.958;21.780;2022-09-28T13:26:55;0.72;;;0.72;;
63975;SDS011;50167;47.958;21.780;2022-09-28T13:29:27;1.52;;;0.80;;
63975;SDS011;50167;47.958;21.780;2022-09-28T13:31:54;1.20;;;1.10;;
63975;SDS011;50167;47.958;21.780;2022-09-28T13:34:24;0.65;;;0.57;;
63975;SDS011;50167;47.958;21.780;2022-09-28T13:56:21;0.65;;;0.50;;
63975;SDS011;50167;47.958;21.780;2022-09-28T14:01:43;0.80;;;0.75;;
63975;SDS011;50167;47.958;21.780;2022-09-28T14:07:20;1.20;;;0.95;;
63975;SDS011;50167;47.958;21.780;2022-09-28T14:10:17;0.80;;;0.70;;
63975;SDS011;50167;47.958;21.780;2022-09-28T14:12:50;3.33;;;0.90;;
63975;SDS011;50167;47.958;21.780;2022-09-28T14:18:13;3.95;;;1.30;;
63975;SDS011;50167;47.958;21.780;2022-09-28T14:26:26;1.10;;;1.00;;
63975;SDS011;50167;47.958;21.780;2022-09-28T14:34:45;1.37;;;0.80;;
63975;SDS011;50167;47.958;21.780;2022-09-28T14:37:19;2.10;;;0.88;;
63975;SDS011;50167;47.958;21.780;2022-09-28T14:40:24;3.80;;;0.80;;
63975;SDS011;50167;47.958;21.780;2022-09-28T14:43:23;3.33;;;0.80;;
63975;SDS011;50167;47.958;21.780;2022-09-28T14:46:53;1.62;;;0.80;;
63975;SDS011;50167;47.958;21.780;2022-09-28T14:48:43;1.65;;;0.72;;
63975;SDS011;50167;47.958;21.780;2022-09-28T14:53:57;0.98;;;0.42;;
63975;SDS011;50167;47.958;21.780;2022-09-28T14:56:30;3.33;;;1.30;;
63975;SDS011;50167;47.958;21.780;2022-09-28T14:59:25;2.85;;;2.02;;
63975;SDS011;50167;47.958;21.780;2022-09-28T15:01:56;13.88;;;4.42;;
63975;SDS011;50167;47.958;21.780;2022-09-28T15:06:54;6.60;;;4.58;;
63975;SDS011;50167;47.958;21.780;2022-09-28T15:09:32;9.70;;;3.17;;
63975;SDS011;50167;47.958;21.780;2022-09-28T15:12:01;2.87;;;1.98;;
63975;SDS011;50167;47.958;21.780;2022-09-28T15:14:56;2.52;;;1.62;;
63975;SDS011;50167;47.958;21.780;2022-09-28T15:17:36;4.17;;;2.67;;
63975;SDS011;50167;47.958;21.780;2022-09-28T15:22:50;5.05;;;1.90;;
63975;SDS011;50167;47.958;21.780;2022-09-28T15:25:27;3.62;;;1.62;;
63975;SDS011;50167;47.958;21.780;2022-09-28T15:27:57;2.17;;;1.45;;
63975;SDS011;50167;47.958;21.780;2022-09-28T15:30:31;3.37;;;1.87;;
63975;SDS011;50167;47.958;21.780;2022-09-28T15:33:01;5.62;;;2.02;;
63975;SDS011;50167;47.958;21.780;2022-09-28T15:35:48;3.00;;;2.07;;
63975;SDS011;50167;47.958;21.780;2022-09-28T15:38:31;3.83;;;2.13;;
63975;SDS011;50167;47.958;21.780;2022-09-28T15:40:59;11.87;;;5.13;;
63975;SDS011;50167;47.958;21.780;2022-09-28T15:43:31;5.50;;;4.40;;
63975;SDS011;50167;47.958;21.780;2022-09-28T15:51:15;28.23;;;6.20;;
63975;SDS011;50167;47.958;21.780;2022-09-28T15:56:51;39.80;;;12.87;;
63975;SDS011;50167;47.958;21.780;2022-09-28T15:59:24;16.77;;;14.93;;
63975;SDS011;50167;47.958;21.780;2022-09-28T16:02:08;11.43;;;10.20;;
63975;SDS011;50167;47.958;21.780;2022-09-28T16:04:48;6.87;;;4.80;;
63975;SDS011;50167;47.958;21.780;2022-09-28T16:07:29;4.30;;;3.50;;
63975;SDS011;50167;47.958;21.780;2022-09-28T16:15:35;11.60;;;4.90;;
63975;SDS011;50167;47.958;21.780;2022-09-28T16:18:01;5.50;;;3.07;;
63975;SDS011;50167;47.958;21.780;2022-09-28T16:20:28;6.93;;;3.90;;
63975;SDS011;50167;47.958;21.780;2022-09-28T16:22:59;8.57;;;3.90;;
63975;SDS011;50167;47.958;21.780;2022-09-28T16:25:36;18.03;;;5.20;;
63975;SDS011;50167;47.958;21.780;2022-09-28T16:28:04;7.50;;;4.17;;
63975;SDS011;50167;47.958;21.780;2022-09-28T16:30:32;8.60;;;5.57;;
63975;SDS011;50167;47.958;21.780;2022-09-28T16:33:00;16.80;;;8.27;;
63975;SDS011;50167;47.958;21.780;2022-09-28T16:38:14;54.17;;;25.20;;
63975;SDS011;50167;47.958;21.780;2022-09-28T16:40:43;43.83;;;21.30;;
63975;SDS011;50167;47.958;21.780;2022-09-28T16:43:25;40.30;;;17.83;;
63975;SDS011;50167;47.958;21.780;2022-09-28T16:46:15;48.00;;;21.03;;
63975;SDS011;50167;47.958;21.780;2022-09-28T16:48:41;55.83;;;27.63;;
63975;SDS011;50167;47.958;21.780;2022-09-28T16:51:15;57.33;;;27.30;;
63975;SDS011;50167;47.958;21.780;2022-09-28T16:53:43;49.70;;;24.00;;
63975;SDS011;50167;47.958;21.780;2022-09-28T16:56:29;49.60;;;21.13;;
63975;SDS011;50167;47.958;21.780;2022-09-28T16:58:57;37.30;;;16.03;;
63975;SDS011;50167;47.958;21.780;2022-09-28T17:01:23;44.83;;;24.90;;
63975;SDS011;50167;47.958;21.780;2022-09-28T17:03:50;45.07;;;23.63;;
63975;SDS011;50167;47.958;21.780;2022-09-28T17:06:16;41.57;;;22.07;;
63975;SDS011;50167;47.958;21.780;2022-09-28T17:08:45;42.70;;;22.87;;
63975;SDS011;50167;47.958;21.780;2022-09-28T17:11:12;32.13;;;18.37;;
63975;SDS011;50167;47.958;21.780;2022-09-28T17:13:41;32.53;;;17.57;;
63975;SDS011;50167;47.958;21.780;2022-09-28T17:18:46;59.27;;;31.13;;
63975;SDS011;50167;47.958;21.780;2022-09-28T17:21:14;49.17;;;30.77;;
63975;SDS011;50167;47.958;21.780;2022-09-28T17:23:43;46.20;;;30.27;;
63975;SDS011;50167;47.958;21.780;2022-09-28T17:26:23;57.07;;;32.73;;
63975;SDS011;50167;47.958;21.780;2022-09-28T17:28:51;51.47;;;33.37;;
63975;SDS011;50167;47.958;21.780;2022-09-28T17:31:17;44.47;;;27.70;;
63975;SDS011;50167;47.958;21.780;2022-09-28T17:33:44;48.93;;;27.40;;
63975;SDS011;50167;47.958;21.780;2022-09-28T17:36:14;43.93;;;29.90;;
63975;SDS011;50167;47.958;21.780;2022-09-28T17:38:42;32.80;;;22.73;;
63975;SDS011;50167;47.958;21.780;2022-09-28T17:41:11;30.90;;;15.40;;
63975;SDS011;50167;47.958;21.780;2022-09-28T17:43:41;30.97;;;15.55;;
63975;SDS011;50167;47.958;21.780;2022-09-28T17:46:23;30.63;;;15.23;;
63975;SDS011;50167;47.958;21.780;2022-09-28T17:48:57;26.07;;;12.37;;
63975;SDS011;50167;47.958;21.780;2022-09-28T17:51:30;24.60;;;10.83;;
63975;SDS011;50167;47.958;21.780;2022-09-28T17:53:55;16.40;;;7.92;;
63975;SDS011;50167;47.958;21.780;2022-09-28T17:56:23;14.97;;;9.10;;
63975;SDS011;50167;47.958;21.780;2022-09-28T17:58:55;16.10;;;8.90;;
63975;SDS011;50167;47.958;21.780;2022-09-28T18:01:27;13.83;;;8.37;;
63975;SDS011;50167;47.958;21.780;2022-09-28T18:03:55;14.73;;;8.50;;
63975;SDS011;50167;47.958;21.780;2022-09-28T18:06:24;17.67;;;9.97;;
63975;SDS011;50167;47.958;21.780;2022-09-28T18:08:50;20.47;;;12.13;;
63975;SDS011;50167;47.958;21.780;2022-09-28T18:11:16;20.83;;;11.47;;
63975;SDS011;50167;47.958;21.780;2022-09-28T18:13:43;21.53;;;12.43;;
63975;SDS011;50167;47.958;21.780;2022-09-28T18:16:18;20.53;;;12.17;;
63975;SDS011;50167;47.958;21.780;2022-09-28T18:18:44;17.47;;;10.97;;
63975;SDS011;50167;47.958;21.780;2022-09-28T18:21:12;17.40;;;11.17;;
63975;SDS011;50167;47.958;21.780;2022-09-28T18:23:44;19.67;;;11.80;;
63975;SDS011;50167;47.958;21.780;2022-09-28T18:26:10;30.80;;;15.73;;
63975;SDS011;50167;47.958;21.780;2022-09-28T18:28:40;30.60;;;17.23;;
63975;SDS011;50167;47.958;21.780;2022-09-28T18:31:07;32.03;;;17.90;;
63975;SDS011;50167;47.958;21.780;2022-09-28T18:33:35;33.83;;;17.67;;